Time;durP1;ratioP1;P1;durP2;ratioP2;P2;SDS_P1;SDS_P2;PMS_P1;PMS_P2;Temp;Humidity;BMP_temperature;BMP_pressure;BME280_temperature;BME280_humidity;BME280_pressure;Samples;Min_cycle;Max_cycle;Signal;HPM_P1;HPM_P2
2022/03/30 00:00:43;;;;;;;3.50;1.67;;;9.30;1.40;;;10.16;81.93;94283.94;647848;216;31579;-79
2022/03/30 00:03:28;;;;;;;9.67;2.87;;;8.70;1.40;;;9.92;81.86;94280.44;648069;212;32171;-77
2022/03/30 00:06:16;;;;;;;7.70;2.77;;;8.30;1.40;;;9.78;82.05;94279.64;646424;216;32246;-75
2022/03/30 00:08:57;;;;;;;2.90;1.45;;;8.20;1.40;;;9.68;82.96;94276.55;610115;222;32644;-75
2022/03/30 00:11:39;;;;;;;4.10;2.07;;;8.20;1.40;;;9.64;82.31;94269.27;619896;225;32502;-76
2022/03/30 00:14:21;;;;;;;6.07;2.28;;;8.20;1.40;;;9.69;84.34;94268.78;646598;212;32199;-76
2022/03/30 00:17:03;;;;;;;4.22;1.90;;;8.40;1.40;;;9.79;85.11;94265.06;618718;226;32068;-75
2022/03/30 00:19:44;;;;;;;3.40;2.00;;;8.70;1.40;;;9.89;82.86;94264.64;646383;216;31581;-75
2022/03/30 00:22:32;;;;;;;2.40;2.10;;;8.70;1.40;;;9.85;83.23;94259.89;648621;216;32870;-79
2022/03/30 00:25:20;;;;;;;2.20;2.00;;;8.50;1.40;;;9.85;85.09;94255.58;647055;212;32160;-76
2022/03/30 00:30:38;;;;;;;6.70;2.20;;;8.80;1.40;;;9.98;83.29;94248.73;646629;216;31561;-79
2022/03/30 00:35:55;;;;;;;10.23;2.12;;;8.40;1.40;;;9.75;85.80;94242.92;631858;222;31928;-78
2022/03/30 00:38:36;;;;;;;3.70;1.97;;;8.30;1.40;;;9.67;86.87;94239.89;620667;222;32538;-78
2022/03/30 00:41:18;;;;;;;3.30;2.33;;;8.50;1.40;;;9.74;86.55;94238.20;648265;212;31587;-79
2022/03/30 00:44:00;;;;;;;8.65;2.53;;;8.60;1.40;;;9.79;85.65;94237.30;647695;212;32062;-78
2022/03/30 00:46:48;;;;;;;6.50;3.50;;;8.70;1.40;;;9.86;85.98;94231.51;647243;216;31615;-76
2022/03/30 00:49:35;;;;;;;5.13;2.70;;;8.80;1.40;;;9.89;86.30;94237.64;618968;225;31905;-78
2022/03/30 00:52:17;;;;;;;6.63;2.23;;;8.80;1.40;;;9.95;85.63;94234.84;620049;226;31919;-77
2022/03/30 00:55:02;;;;;;;2.80;2.27;;;8.80;1.40;;;9.95;85.82;94235.00;648756;216;31579;-78
2022/03/30 00:57:43;;;;;;;3.90;3.00;;;8.40;1.40;;;9.74;88.46;94234.34;646628;216;31655;-78
2022/03/30 01:00:25;;;;;;;4.93;2.20;;;8.30;1.40;;;9.66;89.13;94235.16;619603;223;31899;-78
2022/03/30 01:03:09;;;;;;;6.10;1.87;;;8.40;1.40;;;9.70;89.43;94234.48;647801;216;31699;-76
2022/03/30 01:05:56;;;;;;;2.90;2.20;;;8.60;1.40;;;9.84;87.10;94231.20;647352;216;31577;-79
2022/03/30 01:08:48;;;;;;;3.83;1.57;;;8.70;1.40;;;9.93;86.95;94229.36;627045;220;31879;-77
2022/03/30 01:11:35;;;;;;;4.13;1.93;;;8.80;1.40;;;9.93;87.28;94233.56;647976;212;31578;-79
2022/03/30 01:14:17;;;;;;;4.60;2.33;;;8.80;1.40;;;9.99;85.61;94232.83;647650;216;31548;-78
2022/03/30 01:16:58;;;;;;;2.40;1.70;;;8.70;1.40;;;10.01;84.74;94232.21;620221;222;32457;-78
2022/03/30 01:19:40;;;;;;;6.60;1.92;;;8.70;1.40;;;9.97;86.27;94228.12;619904;226;32108;-77
2022/03/30 01:22:24;;;;;;;8.52;2.40;;;8.60;1.40;;;9.62;91.08;94225.20;647352;216;31609;-78
2022/03/30 01:25:08;;;;;;;4.65;2.20;;;8.50;1.40;;;9.70;90.72;94222.64;647800;216;31551;-75
2022/03/30 01:27:49;;;;;;;2.87;2.07;;;8.60;1.40;;;9.78;89.48;94225.95;646246;212;31561;-75
2022/03/30 01:35:51;;;;;;;1.98;1.73;;;9.00;1.40;;;10.04;87.42;94211.44;620405;225;31939;-78
2022/03/30 01:38:33;;;;;;;2.90;2.00;;;9.10;1.40;;;10.09;87.54;94210.00;619374;222;31895;-78
2022/03/30 01:41:15;;;;;;;3.15;2.95;;;9.10;1.40;;;10.11;87.43;94211.33;647463;216;31542;-78
2022/03/30 01:43:57;;;;;;;6.20;2.20;;;9.10;1.40;;;9.99;89.63;94208.79;647314;216;31593;-77
2022/03/30 01:46:45;;;;;;;4.40;2.40;;;8.90;1.40;;;9.84;91.77;94202.26;619862;222;32009;-76
2022/03/30 01:49:32;;;;;;;6.40;2.77;;;8.90;1.40;;;9.97;91.03;94200.87;620746;222;32414;-77
2022/03/30 01:52:16;;;;;;;3.50;2.58;;;9.30;1.40;;;10.15;90.08;94197.64;648299;216;31586;-79
2022/03/30 01:54:58;;;;;;;3.17;2.00;;;9.50;1.40;;;10.30;89.20;94194.59;647402;216;31912;-76
2022/03/30 01:57:45;;;;;;;2.10;1.90;;;9.70;1.40;;;10.72;87.43;94177.93;648511;216;31765;-75
2022/03/30 02:00:36;;;;;;;3.67;2.60;;;10.10;1.40;;;11.06;84.22;94174.66;647991;216;32073;-77
2022/03/30 02:03:23;;;;;;;2.33;2.13;;;10.50;1.40;;;11.40;81.59;94161.84;646529;212;32135;-75
2022/03/30 02:06:12;;;;;;;2.90;2.30;;;10.80;1.40;;;11.48;81.28;94157.39;647467;212;31594;-78
2022/03/30 02:08:59;;;;;;;6.47;2.00;;;10.80;1.40;;;11.33;82.81;94147.93;634761;216;31824;-76
2022/03/30 02:11:41;;;;;;;5.60;2.30;;;10.60;1.40;;;11.23;82.61;94142.11;645866;216;31905;-76
2022/03/30 02:14:29;;;;;;;4.32;2.15;;;10.40;1.40;;;11.10;84.26;94139.30;644097;215;31606;-78
2022/03/30 02:17:18;;;;;;;3.70;1.90;;;10.20;1.40;;;10.96;84.99;94131.58;647719;212;31529;-78
2022/03/30 02:19:59;;;;;;;3.90;2.07;;;10.00;1.40;;;10.90;84.99;94125.03;616613;227;31895;-78
2022/03/30 02:22:50;;;;;;;4.23;2.13;;;10.00;1.40;;;10.90;84.64;94114.73;646950;216;31534;-78
2022/03/30 02:25:32;;;;;;;4.53;2.00;;;10.00;1.40;;;10.86;85.13;94104.69;646908;216;31595;-76
2022/03/30 02:28:16;;;;;;;4.33;2.23;;;10.00;1.40;;;10.84;84.95;94105.33;647477;212;31887;-77
2022/03/30 02:31:04;;;;;;;5.40;2.77;;;10.00;1.40;;;10.88;84.51;94100.16;645248;212;31540;-76
2022/03/30 02:35:51;;;;;;;5.50;1.83;;;10.00;1.40;;;10.86;84.00;94098.39;619908;226;32671;-78
2022/03/30 02:38:33;;;;;;;4.65;1.95;;;10.10;1.40;;;10.86;83.92;94093.19;648239;212;31681;-78
2022/03/30 02:41:47;;;;;;;5.70;1.95;;;10.00;1.40;;;10.82;83.97;94084.45;643258;215;31590;-78
2022/03/30 02:44:32;;;;;;;5.60;3.00;;;10.10;1.40;;;10.89;83.42;94078.77;647923;216;31540;-78
2022/03/30 02:47:14;;;;;;;3.33;1.87;;;10.10;1.40;;;10.91;83.39;94081.11;619467;226;31933;-77
2022/03/30 02:49:55;;;;;;;6.90;2.83;;;10.10;1.40;;;11.02;82.81;94081.67;620065;222;31904;-78
2022/03/30 02:52:38;;;;;;;2.20;1.70;;;10.10;1.40;;;10.95;83.28;94080.24;647766;212;31561;-78
2022/03/30 02:55:24;;;;;;;3.40;2.40;;;10.10;1.40;;;10.97;83.17;94085.33;621294;226;31949;-78
2022/03/30 02:58:08;;;;;;;3.33;2.90;;;10.10;1.40;;;10.85;84.30;94081.39;618583;226;32404;-76
2022/03/30 03:00:51;;;;;;;5.47;2.03;;;9.90;1.40;;;10.73;85.53;94085.36;646235;212;31595;-78
2022/03/30 03:03:40;;;;;;;4.57;2.10;;;9.90;1.40;;;10.77;85.29;94081.61;646774;212;31569;-76
2022/03/30 03:06:27;;;;;;;5.50;3.20;;;9.90;1.40;;;11.11;81.76;94080.10;618841;226;31996;-79
2022/03/30 03:09:08;;;;;;;3.43;2.10;;;10.40;1.40;;;11.04;82.53;94076.52;648054;216;31619;-77
2022/03/30 03:11:50;;;;;;;8.20;2.53;;;10.20;1.40;;;11.07;82.28;94073.05;645824;212;31596;-77
2022/03/30 03:14:32;;;;;;;8.13;2.30;;;10.30;1.40;;;10.92;85.08;94067.41;647529;212;31568;-78
2022/03/30 03:17:15;;;;;;;3.40;1.90;;;10.00;1.40;;;10.86;86.35;94063.30;646516;216;31599;-76
2022/03/30 03:20:04;;;;;;;1.67;1.57;;;9.60;1.40;;;10.88;84.29;94065.22;653295;212;23576;-78
2022/03/30 03:22:45;;;;;;;4.43;2.53;;;9.90;1.40;;;11.34;79.45;94062.98;620317;222;31920;-77
2022/03/30 03:25:34;;;;;;;3.07;1.90;;;10.70;1.40;;;11.35;79.67;94057.62;619401;226;31980;-76
2022/03/30 03:28:17;;;;;;;3.07;2.47;;;10.60;1.40;;;11.49;77.34;94047.68;619864;222;31924;-77
2022/03/30 03:31:05;;;;;;;4.53;2.30;;;10.80;1.40;;;11.72;74.08;94039.73;618920;222;33531;-77
2022/03/30 03:35:57;;;;;;;3.37;1.77;;;11.20;1.40;;;11.74;73.21;94030.30;646262;212;31589;-78
2022/03/30 03:38:45;;;;;;;3.70;2.20;;;11.00;1.40;;;11.80;72.44;94022.33;647956;216;31565;-79
2022/03/30 03:41:27;;;;;;;5.47;2.45;;;11.00;1.40;;;11.78;72.12;94020.98;646966;216;42190;-79
2022/03/30 03:44:09;;;;;;;8.10;2.60;;;11.00;1.40;;;11.72;73.03;94023.70;642562;217;32523;-79
2022/03/30 03:46:55;;;;;;;8.57;2.75;;;11.00;1.40;;;11.68;73.58;94019.83;648325;216;31559;-78
2022/03/30 03:49:38;;;;;;;10.63;2.23;;;10.90;1.40;;;11.53;74.79;94017.16;620028;222;31910;-79
2022/03/30 03:52:29;;;;;;;5.60;2.10;;;10.70;1.40;;;11.47;75.33;94023.32;646697;212;31528;-76
2022/03/30 03:55:10;;;;;;;3.00;2.00;;;10.50;1.40;;;11.44;75.76;94020.25;646172;216;31800;-76
2022/03/30 03:57:58;;;;;;;5.43;2.00;;;10.50;1.40;;;11.35;76.20;94014.92;647104;213;31557;-78
2022/03/30 04:00:46;;;;;;;3.10;1.97;;;10.40;1.40;;;11.31;76.63;94013.61;647102;212;31547;-78
2022/03/30 04:03:27;;;;;;;2.00;1.80;;;10.40;1.40;;;11.18;77.65;94016.22;646610;212;31590;-79
2022/03/30 04:06:09;;;;;;;6.60;2.80;;;10.40;1.40;;;11.13;78.48;94015.19;632981;222;31731;-78
2022/03/30 04:08:51;;;;;;;5.70;2.40;;;10.20;1.40;;;11.13;78.18;94016.08;647663;216;31666;-79
2022/03/30 04:11:39;;;;;;;4.63;2.27;;;10.30;1.40;;;11.09;78.44;94019.52;645898;216;32185;-75
2022/03/30 04:14:22;;;;;;;4.60;2.20;;;10.20;1.40;;;11.11;79.09;94014.89;647134;212;31586;-79
2022/03/30 04:17:04;;;;;;;2.90;2.30;;;10.00;1.40;;;10.87;81.02;94015.19;620321;222;31940;-78
2022/03/30 04:19:46;;;;;;;5.10;3.25;;;9.80;1.40;;;10.40;84.71;94024.03;647292;216;31686;-78
2022/03/30 04:22:34;;;;;;;2.60;2.30;;;9.40;1.40;;;10.27;86.37;94021.89;646614;216;31596;-75
2022/03/30 04:25:19;;;;;;;5.87;2.53;;;9.40;1.40;;;10.25;86.23;94013.13;619362;222;32507;-78
2022/03/30 04:28:05;;;;;;;6.32;2.37;;;9.50;1.40;;;10.35;85.59;94022.45;619114;226;31944;-79
2022/03/30 04:30:47;;;;;;;4.47;2.22;;;9.50;1.40;;;10.46;84.67;94021.31;619005;222;32472;-78
2022/03/30 04:35:52;;;;;;;3.45;2.00;;;9.70;1.40;;;10.50;84.76;94014.64;618202;222;31893;-76
2022/03/30 04:38:34;;;;;;;6.93;2.12;;;9.70;1.40;;;10.28;86.93;94012.71;647469;216;31512;-76
2022/03/30 04:41:18;;;;;;;4.60;1.87;;;9.50;1.40;;;10.26;87.51;94012.57;646539;216;32271;-78
2022/03/30 04:44:00;;;;;;;3.20;1.90;;;9.30;1.40;;;10.32;87.17;94010.52;621694;222;35338;-78
2022/03/30 04:46:41;;;;;;;2.80;2.00;;;9.30;1.40;;;10.28;87.98;94010.03;645919;212;31609;-78
2022/03/30 04:49:23;;;;;;;6.20;2.37;;;9.30;1.40;;;10.29;88.15;94007.08;619929;222;32486;-79
2022/03/30 04:52:06;;;;;;;6.70;2.90;;;9.30;1.40;;;10.28;88.08;94014.47;647255;212;31607;-78
2022/03/30 04:54:51;;;;;;;3.20;1.70;;;9.30;1.40;;;9.93;91.89;94015.77;620155;222;32512;-78
2022/03/30 04:57:40;;;;;;;5.97;2.90;;;9.00;1.40;;;9.86;93.24;94011.64;646880;216;31584;-75
2022/03/30 05:00:21;;;;;;;7.10;2.60;;;8.80;1.40;;;9.88;93.31;94008.78;645545;216;31721;-76
2022/03/30 05:03:04;;;;;;;3.23;2.50;;;9.00;1.40;;;9.92;92.77;94005.69;620828;222;32171;-78
2022/03/30 05:05:46;;;;;;;3.30;2.37;;;9.00;1.40;;;9.92;92.42;94010.53;647827;212;31537;-78
2022/03/30 05:08:30;;;;;;;3.50;2.03;;;9.10;1.40;;;9.96;92.19;94007.88;636596;212;32276;-78
2022/03/30 05:11:13;;;;;;;3.10;1.90;;;9.00;1.40;;;9.90;93.19;94009.86;651655;212;31571;-79
2022/03/30 05:14:06;;;;;;;3.43;1.93;;;9.00;1.40;;;9.90;93.69;94004.82;652143;216;23460;-78
2022/03/30 05:16:51;;;;;;;3.17;2.70;;;8.90;1.40;;;9.82;94.64;94006.08;645776;216;31538;-75
2022/03/30 05:19:32;;;;;;;5.63;2.27;;;8.70;1.40;;;9.66;96.06;94006.81;647648;212;31554;-76
2022/03/30 05:22:20;;;;;;;6.93;2.80;;;8.70;1.40;;;9.67;96.72;94009.98;647488;216;32240;-78
2022/03/30 05:25:06;;;;;;;2.70;2.42;;;8.60;1.40;;;9.66;96.10;94007.58;620400;222;32510;-78
2022/03/30 05:27:52;;;;;;;3.30;2.30;;;8.70;1.40;;;9.83;93.75;94008.20;647450;216;31605;-79
2022/03/30 05:30:34;;;;;;;2.90;2.50;;;9.10;1.40;;;9.90;92.25;94014.27;647454;216;31573;-77
2022/03/30 05:35:51;;;;;;;6.37;3.08;;;9.10;1.40;;;10.06;90.78;94012.41;646372;216;31603;-79
2022/03/30 05:41:21;;;;;;;10.97;3.80;;;9.10;1.40;;;9.97;92.83;94013.86;621535;222;33444;-78
2022/03/30 05:44:06;;;;;;;4.10;2.30;;;9.00;1.40;;;10.01;93.46;94013.74;620846;226;31891;-79
2022/03/30 05:46:54;;;;;;;2.30;2.10;;;9.00;1.40;;;10.21;90.50;94011.40;645862;216;31641;-76
2022/03/30 05:49:40;;;;;;;3.07;2.50;;;9.20;1.40;;;10.35;89.89;94010.42;649502;216;31668;-80
2022/03/30 05:52:24;;;;;;;7.40;2.67;;;9.30;1.40;;;10.30;89.71;94008.50;647453;212;31571;-76
2022/03/30 05:55:08;;;;;;;4.80;3.17;;;9.30;1.40;;;10.42;88.42;94009.86;646315;216;31596;-76
2022/03/30 05:57:50;;;;;;;4.70;3.67;;;9.50;1.40;;;10.49;88.90;94010.45;647328;216;34449;-76
2022/03/30 06:00:31;;;;;;;4.62;2.30;;;9.50;1.40;;;10.63;86.47;94007.38;646426;212;31595;-77
2022/03/30 06:03:16;;;;;;;4.00;2.85;;;9.70;1.40;;;10.64;86.44;94008.53;645277;216;31923;-76
2022/03/30 06:06:01;;;;;;;3.73;2.07;;;9.80;1.40;;;10.80;85.38;94010.30;647806;216;31566;-81
2022/03/30 06:08:45;;;;;;;2.60;1.55;;;9.90;1.40;;;11.04;82.59;94010.70;615071;229;31973;-78
2022/03/30 06:11:27;;;;;;;6.70;3.20;;;10.00;1.40;;;11.20;79.70;94011.34;645989;212;31569;-77
2022/03/30 06:14:08;;;;;;;3.17;2.80;;;10.40;1.40;;;11.16;81.12;94012.83;646294;212;41981;-77
2022/03/30 06:16:53;;;;;;;4.33;1.77;;;10.30;1.40;;;11.23;80.37;94009.61;647417;212;31880;-77
2022/03/30 06:19:35;;;;;;;2.60;2.20;;;10.40;1.40;;;11.24;79.87;94008.69;618796;222;31920;-76
2022/03/30 06:22:20;;;;;;;3.03;2.40;;;10.50;1.40;;;11.34;80.07;94006.22;645902;216;31588;-76
2022/03/30 06:25:01;;;;;;;4.90;2.57;;;10.50;1.40;;;11.36;79.27;94005.07;647523;212;31548;-75
2022/03/30 06:27:48;;;;;;;3.53;2.60;;;10.60;1.40;;;11.51;79.47;94010.60;632844;222;42347;-81
2022/03/30 06:30:35;;;;;;;6.97;2.57;;;10.70;1.40;;;11.54;79.12;94007.95;646811;216;31581;-77
2022/03/30 06:35:51;;;;;;;4.30;2.37;;;10.70;1.40;;;11.61;79.12;94010.55;646782;213;31600;-76
2022/03/30 06:38:33;;;;;;;7.27;2.20;;;10.80;1.40;;;11.63;78.74;94011.95;645815;212;31568;-77
2022/03/30 06:41:16;;;;;;;7.27;2.00;;;10.90;1.40;;;11.74;78.18;94014.05;620436;222;31948;-78
2022/03/30 06:43:56;;;;;;;4.50;2.00;;;10.90;1.40;;;11.82;78.78;94009.38;645971;212;31604;-77
2022/03/30 06:47:41;;;;;;;5.80;2.30;;;11.00;1.40;;;11.73;79.20;94012.63;617321;225;31950;-81
2022/03/30 06:50:25;;;;;;;3.40;1.90;;;11.00;1.40;;;11.91;78.74;94014.25;619869;222;32011;-77
2022/03/30 06:53:09;;;;;;;8.10;2.40;;;11.00;1.40;;;12.08;77.94;94008.92;646778;212;32062;-77
2022/03/30 06:55:50;;;;;;;2.10;1.87;;;11.00;1.40;;;12.22;77.72;94001.35;653812;212;23482;-80
2022/03/30 06:58:38;;;;;;;9.68;2.05;;;11.10;1.40;;;12.39;76.80;93999.41;643241;216;31581;-76
2022/03/30 07:01:26;;;;;;;4.43;2.70;;;11.20;1.40;;;12.17;77.53;94006.64;621424;226;32085;-80
2022/03/30 07:04:13;;;;;;;5.50;2.80;;;11.10;1.40;;;12.04;78.26;94007.64;645521;216;32106;-76
2022/03/30 07:12:31;;;;;;;5.30;2.00;;;11.10;1.40;;;12.40;78.15;94002.39;645933;212;31790;-76
2022/03/30 07:17:50;;;;;;;7.30;2.90;;;11.40;1.40;;;12.43;77.84;94000.39;647928;216;31573;-77
2022/03/30 07:20:31;;;;;;;3.80;1.92;;;11.40;1.40;;;12.45;79.55;94002.34;646484;216;31571;-78
2022/03/30 07:23:16;;;;;;;5.83;2.40;;;11.30;1.40;;;12.49;79.46;94001.77;647398;216;31576;-77
2022/03/30 07:26:00;;;;;;;6.40;2.80;;;11.40;1.40;;;12.84;78.55;94000.64;619745;226;32938;-76
2022/03/30 07:28:39;;;;;;;2.70;1.70;;;11.60;1.40;;;12.76;78.14;94003.77;646391;216;43211;-77
2022/03/30 07:31:20;;;;;;;3.97;2.27;;;11.60;1.40;;;12.65;78.12;93994.79;618268;226;32639;-78
2022/03/30 07:35:51;;;;;;;7.60;2.00;;;11.50;1.40;;;12.70;79.22;93999.44;647239;212;32033;-78
2022/03/30 07:38:32;;;;;;;4.00;2.27;;;11.50;1.40;;;12.66;79.39;93996.13;646112;212;31819;-76
2022/03/30 07:41:14;;;;;;;6.15;2.53;;;11.60;1.40;;;13.14;78.66;93995.73;648142;216;31681;-77
2022/03/30 07:43:56;;;;;;;3.33;1.97;;;11.80;1.40;;;13.15;77.07;93992.52;647049;212;31594;-76
2022/03/30 07:46:40;;;;;;;3.50;1.57;;;11.80;1.40;;;12.99;77.49;93989.28;646997;216;31557;-78
2022/03/30 07:49:22;;;;;;;6.00;2.97;;;11.70;1.40;;;13.04;77.98;93994.16;620275;225;31940;-78
2022/03/30 07:52:04;;;;;;;5.60;2.43;;;11.80;1.40;;;13.09;77.56;93996.52;646339;212;31623;-76
2022/03/30 07:54:49;;;;;;;3.20;1.77;;;11.90;1.40;;;12.87;80.01;93997.42;648626;212;31846;-77
2022/03/30 07:57:31;;;;;;;6.28;2.12;;;11.80;1.40;;;12.66;81.59;93991.77;647960;216;31719;-77
2022/03/30 08:00:15;;;;;;;7.15;2.58;;;11.70;1.40;;;12.84;80.66;93990.08;647738;216;31539;-77
2022/03/30 08:02:54;;;;;;;4.17;2.67;;;11.80;1.40;;;12.84;80.55;93987.42;619227;225;31902;-76
2022/03/30 08:05:36;;;;;;;6.73;2.00;;;11.70;1.40;;;13.16;79.68;93985.73;619622;222;31957;-76
2022/03/30 08:08:17;;;;;;;5.27;1.80;;;11.90;1.40;;;13.40;77.75;93989.80;646169;216;31606;-76
2022/03/30 08:11:05;;;;;;;8.47;3.03;;;12.10;1.40;;;13.67;77.69;93985.94;646870;216;31565;-81
2022/03/30 08:13:47;;;;;;;4.07;1.70;;;12.20;1.40;;;13.39;78.18;93985.72;648756;216;42154;-81
2022/03/30 08:19:09;;;;;;;4.50;2.20;;;12.10;1.40;;;13.58;76.48;93983.81;618729;225;31924;-77
2022/03/30 08:24:39;;;;;;;5.23;2.70;;;12.30;1.40;;;13.51;76.73;93988.54;647388;216;31564;-76
2022/03/30 08:27:20;;;;;;;3.10;1.70;;;12.20;1.40;;;13.91;75.90;93983.69;646844;215;42224;-77
2022/03/30 08:30:01;;;;;;;6.40;3.17;;;12.50;1.40;;;13.79;75.10;93983.30;620077;222;31913;-77
2022/03/30 08:32:43;;;;;;;4.70;2.87;;;12.40;1.40;;;13.42;77.39;93986.98;646784;212;33119;-77
2022/03/30 08:35:50;;;;;;;8.18;2.80;;;12.00;1.40;;;13.43;78.59;93985.46;618930;226;32076;-77
2022/03/30 08:38:32;;;;;;;6.35;2.30;;;12.10;1.40;;;13.40;77.64;93985.59;619098;225;33618;-76
2022/03/30 08:41:14;;;;;;;5.00;2.50;;;12.10;1.40;;;13.11;79.42;93989.38;648281;216;42412;-76
2022/03/30 08:44:01;;;;;;;6.87;2.30;;;11.90;1.40;;;12.99;81.19;93984.75;620840;222;31878;-80
2022/03/30 08:46:49;;;;;;;11.45;2.72;;;11.70;1.40;;;12.82;82.28;93985.77;646740;216;31628;-77
2022/03/30 08:49:35;;;;;;;3.70;1.90;;;11.70;1.40;;;12.47;84.94;93990.64;646621;212;32202;-76
2022/03/30 08:52:15;;;;;;;6.10;1.77;;;11.40;1.40;;;12.11;87.95;93992.45;647244;216;31777;-76
2022/03/30 08:54:56;;;;;;;6.80;1.60;;;11.30;1.40;;;12.14;89.35;93993.72;618717;226;31934;-78
2022/03/30 08:57:44;;;;;;;3.00;2.00;;;11.20;1.40;;;12.06;91.59;93992.08;648021;216;31593;-79
2022/03/30 09:00:32;;;;;;;5.60;2.30;;;11.20;1.40;;;12.34;90.92;93990.27;647020;212;31911;-77
2022/03/30 09:03:09;;;;;;;4.90;2.50;;;11.30;1.40;;;12.41;90.95;93992.07;619914;222;31919;-76
2022/03/30 09:05:51;;;;;;;4.87;1.83;;;11.40;1.40;;;12.12;93.86;93999.78;646115;212;31553;-77
2022/03/30 09:08:35;;;;;;;10.03;2.43;;;11.20;1.40;;;12.03;94.63;93994.69;610901;226;32245;-81
2022/03/30 09:11:22;;;;;;;5.07;1.50;;;11.00;1.40;;;12.27;95.26;93984.94;647055;216;31759;-77
2022/03/30 09:14:04;;;;;;;2.60;2.00;;;11.30;1.40;;;11.95;100.00;93992.30;646312;216;31554;-77
2022/03/30 09:16:46;;;;;;;2.70;1.60;;;11.00;1.40;;;11.97;100.00;93988.92;647159;216;32105;-77
2022/03/30 09:19:27;;;;;;;6.45;2.42;;;11.00;1.40;;;11.96;100.00;93989.94;618463;226;32507;-76
2022/03/30 09:22:10;;;;;;;5.70;2.17;;;11.10;1.40;;;12.40;100.00;93978.66;618775;226;32187;-77
2022/03/30 09:24:54;;;;;;;3.60;1.90;;;11.50;1.40;;;12.44;100.00;93979.92;645186;216;42187;-77
2022/03/30 09:27:39;;;;;;;2.27;1.60;;;11.40;1.40;;;12.72;100.00;93981.81;647580;212;31557;-78
2022/03/30 09:30:17;;;;;;;6.37;2.80;;;11.60;1.40;;;12.67;98.70;93975.17;620390;225;31913;-78
2022/03/30 09:32:59;;;;;;;6.43;3.30;;;11.70;1.40;;;12.55;99.02;93974.86;647904;216;42184;-77
2022/03/30 09:35:54;;;;;;;4.82;2.95;;;11.30;1.40;;;12.47;100.00;93969.52;619043;222;32522;-77
2022/03/30 09:38:41;;;;;;;3.00;1.50;;;11.60;1.40;;;12.64;100.00;93967.77;647990;212;31753;-79
2022/03/30 09:44:11;;;;;;;3.62;2.12;;;11.70;1.40;;;12.84;100.00;93968.50;647216;216;31621;-80
2022/03/30 09:47:03;;;;;;;6.53;1.70;;;11.70;1.40;;;12.68;100.00;93974.03;647648;216;31627;-76
2022/03/30 09:49:43;;;;;;;5.73;2.43;;;11.70;1.40;;;12.34;100.00;93970.38;648069;216;31602;-80
2022/03/30 09:52:27;;;;;;;9.50;2.33;;;11.40;1.40;;;12.44;100.00;93970.79;647032;212;31614;-77
2022/03/30 09:55:09;;;;;;;5.35;2.40;;;11.40;1.40;;;12.49;100.00;93968.45;646195;216;42964;-76
2022/03/30 09:57:52;;;;;;;4.90;2.60;;;11.40;1.40;;;12.45;100.00;93962.88;646949;212;42153;-79
2022/03/30 10:00:35;;;;;;;6.62;2.45;;;11.50;1.40;;;12.40;100.00;93960.97;619979;226;31942;-79
2022/03/30 10:03:18;;;;;;;4.60;2.70;;;11.40;1.40;;;12.47;100.00;93951.73;646170;216;31798;-76
2022/03/30 10:08:34;;;;;;;4.23;1.60;;;11.50;1.40;;;12.11;100.00;93949.42;612362;223;43125;-76
2022/03/30 10:11:22;;;;;;;3.13;2.40;;;11.10;1.40;;;12.23;100.00;93948.77;619092;226;31897;-78
2022/03/30 10:14:05;;;;;;;4.00;2.17;;;11.00;1.40;;;12.17;100.00;93942.94;648218;216;42220;-80
2022/03/30 10:16:51;;;;;;;5.30;2.40;;;11.30;1.40;;;12.32;100.00;93934.66;646393;212;31581;-77
2022/03/30 10:19:35;;;;;;;8.60;2.10;;;11.20;1.40;;;12.07;100.00;93940.17;619433;222;32421;-80
2022/03/30 10:22:30;;;;;;;3.40;1.60;;;11.10;1.40;;;11.70;100.00;93945.59;646702;212;31609;-77
2022/03/30 10:25:37;;;;;;;2.30;1.70;;;10.90;1.40;;;11.67;100.00;93943.22;645278;216;31621;-76
2022/03/30 10:28:26;;;;;;;3.03;1.60;;;11.00;1.40;;;11.62;100.00;93939.46;621028;226;32276;-80
2022/03/30 10:31:10;;;;;;;3.35;1.77;;;10.80;1.40;;;11.74;100.00;93932.39;648529;212;33465;-80
2022/03/30 10:35:51;;;;;;;6.18;2.47;;;10.90;1.40;;;11.81;100.00;93937.94;646257;216;31558;-76
2022/03/30 10:38:33;;;;;;;2.67;1.67;;;11.00;1.40;;;11.75;100.00;93929.62;620595;222;31852;-78
2022/03/30 10:41:17;;;;;;;5.90;2.70;;;11.00;1.40;;;11.97;100.00;93926.30;646009;216;31778;-77
2022/03/30 10:46:50;;;;;;;4.37;1.83;;;10.90;1.40;;;11.44;100.00;93930.42;646799;216;31611;-77
2022/03/30 10:49:40;;;;;;;2.27;1.43;;;10.60;1.40;;;11.32;100.00;93931.36;620055;226;31909;-80
2022/03/30 10:52:40;;;;;;;3.30;2.40;;;10.70;1.40;;;11.41;100.00;93926.74;620201;222;31897;-80
2022/03/30 10:55:29;;;;;;;3.90;1.60;;;10.70;1.40;;;11.25;100.00;93926.61;646648;216;31585;-76
2022/03/30 10:58:11;;;;;;;2.97;1.60;;;10.60;1.40;;;11.25;100.00;93924.90;646030;216;31909;-76
2022/03/30 11:00:52;;;;;;;3.33;2.40;;;10.70;1.40;;;11.47;100.00;93924.64;647512;216;42152;-76
2022/03/30 11:04:14;;;;;;;2.40;2.10;;;10.70;1.40;;;11.33;100.00;93920.17;648963;216;31563;-80
2022/03/30 11:07:18;;;;;;;7.90;1.73;;;10.60;1.40;;;11.01;100.00;93919.56;617880;222;32023;-76
2022/03/30 11:10:21;;;;;;;2.90;1.70;;;10.40;1.40;;;11.24;100.00;93912.94;646813;216;31660;-76
2022/03/30 11:13:11;;;;;;;4.77;3.10;;;10.70;1.40;;;11.23;100.00;93909.88;647386;216;32269;-79
2022/03/30 11:16:11;;;;;;;4.60;1.37;;;10.30;1.40;;;11.10;100.00;93911.87;641738;216;42208;-76
2022/03/30 11:18:53;;;;;;;6.20;2.40;;;10.20;1.40;;;11.27;100.00;93906.48;645990;216;32252;-76
2022/03/30 11:21:35;;;;;;;5.05;1.90;;;10.40;1.40;;;11.09;100.00;93904.30;647087;216;32124;-76
2022/03/30 11:29:56;;;;;;;1.70;1.40;;;10.40;1.40;;;11.14;100.00;93897.52;620218;226;31946;-76
2022/03/30 11:32:38;;;;;;;1.97;1.27;;;10.40;1.40;;;11.07;100.00;93893.55;646898;212;31532;-75
2022/03/30 11:35:52;;;;;;;5.15;3.15;;;10.40;1.40;;;11.33;100.00;93893.39;645376;216;31724;-76
2022/03/30 11:38:37;;;;;;;3.10;2.43;;;10.70;1.40;;;11.66;100.00;93884.09;648441;216;31567;-76
2022/03/30 11:41:19;;;;;;;1.70;1.43;;;11.10;1.40;;;11.82;100.00;93878.47;645847;216;31538;-75
2022/03/30 11:46:45;;;;;;;5.63;2.33;;;11.00;1.40;;;12.24;100.00;93872.80;647445;212;31534;-76
2022/03/30 11:49:27;;;;;;;3.53;1.80;;;11.20;1.40;;;12.26;100.00;93868.81;646627;216;31604;-76
2022/03/30 11:52:15;;;;;;;2.10;1.17;;;11.20;1.40;;;11.97;100.00;93867.39;646003;212;31574;-76
2022/03/30 11:54:56;;;;;;;3.20;1.73;;;10.90;1.40;;;12.17;100.00;93860.50;647028;216;31574;-76
2022/03/30 11:57:44;;;;;;;2.93;1.90;;;11.00;1.40;;;12.27;100.00;93855.27;647224;212;31595;-79
2022/03/30 12:00:32;;;;;;;2.20;1.50;;;11.10;1.40;;;12.23;100.00;93855.89;646161;213;31536;-76
2022/03/30 12:03:16;;;;;;;2.43;1.63;;;11.20;1.40;;;12.01;100.00;93855.22;647555;212;42798;-76
2022/03/30 12:06:04;;;;;;;5.10;2.30;;;11.00;1.40;;;12.13;100.00;93852.59;647753;216;31576;-79
2022/03/30 12:08:52;;;;;;;5.83;2.60;;;10.80;1.40;;;11.84;100.00;93849.84;636795;216;32190;-78
2022/03/30 12:11:33;;;;;;;4.53;1.73;;;10.80;1.40;;;11.71;100.00;93856.29;647014;212;31754;-75
2022/03/30 12:14:15;;;;;;;2.40;1.80;;;10.60;1.40;;;11.46;100.00;93854.71;646183;216;31912;-76
2022/03/30 12:17:01;;;;;;;3.42;2.87;;;10.40;1.40;;;11.38;100.00;93849.28;647888;212;31593;-76
2022/03/30 12:19:43;;;;;;;2.80;2.50;;;10.20;1.40;;;11.14;100.00;93855.50;620070;226;32243;-75
2022/03/30 12:22:22;;;;;;;1.90;1.57;;;10.10;1.40;;;10.82;100.00;93854.28;647100;216;31555;-76
2022/03/30 12:25:27;;;;;;;5.10;2.70;;;10.10;1.40;;;10.89;100.00;93845.41;646183;216;42230;-76
2022/03/30 12:28:08;;;;;;;2.40;2.20;;;10.20;1.40;;;10.81;100.00;93843.50;646369;216;31604;-75
2022/03/30 12:30:52;;;;;;;5.50;2.77;;;10.20;1.40;;;10.84;100.00;93840.42;619372;225;31924;-76
2022/03/30 12:35:55;;;;;;;9.85;2.78;;;10.50;1.40;;;11.23;100.00;93823.58;631346;222;31763;-75
2022/03/30 12:38:36;;;;;;;4.57;2.83;;;10.70;1.40;;;11.21;100.00;93830.20;646795;212;32034;-76
2022/03/30 12:41:24;;;;;;;3.63;2.53;;;10.70;1.40;;;11.58;100.00;93827.20;647370;216;31561;-75
2022/03/30 12:44:10;;;;;;;4.65;3.03;;;11.00;1.40;;;11.46;100.00;93824.67;646500;212;31576;-76